sensor_id;sensor_type;location;lat;lon;timestamp;temperature;humidity
9305;DHT22;4690;52.422;13.486;2022-10-16T00:04:00;13.10;99.90
9305;DHT22;4690;52.422;13.486;2022-10-16T00:06:28;13.00;99.90
9305;DHT22;4690;52.422;13.486;2022-10-16T00:08:54;13.10;99.90
9305;DHT22;4690;52.422;13.486;2022-10-16T00:11:32;13.10;99.90
9305;DHT22;4690;52.422;13.486;2022-10-16T00:14:01;13.10;99.90
9305;DHT22;4690;52.422;13.486;2022-10-16T00:16:29;13.10;99.90
9305;DHT22;4690;52.422;13.486;2022-10-16T00:18:55;13.20;99.90
9305;DHT22;4690;52.422;13.486;2022-10-16T00:21:26;13.20;99.90
9305;DHT22;4690;52.422;13.486;2022-10-16T00:23:56;13.30;99.90
9305;DHT22;4690;52.422;13.486;2022-10-16T00:26:26;13.20;99.90
9305;DHT22;4690;52.422;13.486;2022-10-16T00:28:53;13.30;99.90
9305;DHT22;4690;52.422;13.486;2022-10-16T00:31:20;13.30;99.90
9305;DHT22;4690;52.422;13.486;2022-10-16T00:33:47;13.20;99.90
9305;DHT22;4690;52.422;13.486;2022-10-16T00:36:18;13.20;99.90
9305;DHT22;4690;52.422;13.486;2022-10-16T00:38:45;13.30;99.90
9305;DHT22;4690;52.422;13.486;2022-10-16T00:41:15;13.30;99.90
9305;DHT22;4690;52.422;13.486;2022-10-16T00:43:49;13.30;99.90
9305;DHT22;4690;52.422;13.486;2022-10-16T00:46:22;13.30;99.90
9305;DHT22;4690;52.422;13.486;2022-10-16T00:51:33;13.30;99.90
9305;DHT22;4690;52.422;13.486;2022-10-16T00:54:03;13.30;99.90
9305;DHT22;4690;52.422;13.486;2022-10-16T00:56:33;13.30;99.90
9305;DHT22;4690;52.422;13.486;2022-10-16T00:59:02;13.30;99.90
9305;DHT22;4690;52.422;13.486;2022-10-16T01:01:31;13.20;99.90
9305;DHT22;4690;52.422;13.486;2022-10-16T01:03:57;13.20;99.90
9305;DHT22;4690;52.422;13.486;2022-10-16T01:06:42;13.20;99.90
9305;DHT22;4690;52.422;13.486;2022-10-16T01:09:24;13.10;99.90
9305;DHT22;4690;52.422;13.486;2022-10-16T01:12:05;13.10;99.90
9305;DHT22;4690;52.422;13.486;2022-10-16T01:14:43;13.00;99.90
9305;DHT22;4690;52.422;13.486;2022-10-16T01:17:28;13.00;99.90
9305;DHT22;4690;52.422;13.486;2022-10-16T01:23:27;12.90;99.90
9305;DHT22;4690;52.422;13.486;2022-10-16T01:28:24;13.00;99.90
9305;DHT22;4690;52.422;13.486;2022-10-16T01:30:58;12.90;99.90
9305;DHT22;4690;52.422;13.486;2022-10-16T01:33:34;12.90;99.90
9305;DHT22;4690;52.422;13.486;2022-10-16T01:36:14;12.90;99.90
9305;DHT22;4690;52.422;13.486;2022-10-16T01:38:48;13.20;99.90
9305;DHT22;4690;52.422;13.486;2022-10-16T01:41:21;13.40;99.90
9305;DHT22;4690;52.422;13.486;2022-10-16T01:44:03;13.50;99.90
9305;DHT22;4690;52.422;13.486;2022-10-16T01:46:35;13.50;99.90
9305;DHT22;4690;52.422;13.486;2022-10-16T01:49:05;13.60;99.90
9305;DHT22;4690;52.422;13.486;2022-10-16T01:51:35;13.70;99.90
9305;DHT22;4690;52.422;13.486;2022-10-16T01:54:04;13.80;99.90
9305;DHT22;4690;52.422;13.486;2022-10-16T01:56:34;13.90;99.90
9305;DHT22;4690;52.422;13.486;2022-10-16T01:59:06;13.90;99.90
9305;DHT22;4690;52.422;13.486;2022-10-16T02:01:39;13.90;99.90
9305;DHT22;4690;52.422;13.486;2022-10-16T02:04:36;13.90;99.90
9305;DHT22;4690;52.422;13.486;2022-10-16T02:07:07;14.00;99.90
9305;DHT22;4690;52.422;13.486;2022-10-16T02:09:34;14.20;99.90
9305;DHT22;4690;52.422;13.486;2022-10-16T02:12:08;14.20;99.90
9305;DHT22;4690;52.422;13.486;2022-10-16T02:14:40;14.20;99.90
9305;DHT22;4690;52.422;13.486;2022-10-16T02:17:17;14.20;99.90
9305;DHT22;4690;52.422;13.486;2022-10-16T02:19:43;14.30;99.90
9305;DHT22;4690;52.422;13.486;2022-10-16T02:24:57;14.30;99.90
9305;DHT22;4690;52.422;13.486;2022-10-16T02:30:39;14.30;99.90
9305;DHT22;4690;52.422;13.486;2022-10-16T02:33:11;14.30;99.90
9305;DHT22;4690;52.422;13.486;2022-10-16T02:35:40;14.30;99.90
9305;DHT22;4690;52.422;13.486;2022-10-16T02:38:08;14.40;99.90
9305;DHT22;4690;52.422;13.486;2022-10-16T02:40:35;14.30;99.90
9305;DHT22;4690;52.422;13.486;2022-10-16T02:43:03;14.30;99.90
9305;DHT22;4690;52.422;13.486;2022-10-16T02:45:30;14.30;99.90
9305;DHT22;4690;52.422;13.486;2022-10-16T02:47:56;14.30;99.90
9305;DHT22;4690;52.422;13.486;2022-10-16T02:50:22;14.40;99.90
9305;DHT22;4690;52.422;13.486;2022-10-16T02:52:49;14.40;99.90
9305;DHT22;4690;52.422;13.486;2022-10-16T02:55:15;14.40;99.90
9305;DHT22;4690;52.422;13.486;2022-10-16T02:57:41;14.50;99.90
9305;DHT22;4690;52.422;13.486;2022-10-16T03:00:09;14.50;99.90
9305;DHT22;4690;52.422;13.486;2022-10-16T03:02:36;14.50;99.90
9305;DHT22;4690;52.422;13.486;2022-10-16T03:05:02;14.50;99.90
9305;DHT22;4690;52.422;13.486;2022-10-16T03:07:28;14.50;99.90
9305;DHT22;4690;52.422;13.486;2022-10-16T03:09:54;14.50;99.90
9305;DHT22;4690;52.422;13.486;2022-10-16T03:12:20;14.40;99.90
9305;DHT22;4690;52.422;13.486;2022-10-16T03:14:47;14.50;99.90
9305;DHT22;4690;52.422;13.486;2022-10-16T03:17:12;14.40;99.90
9305;DHT22;4690;52.422;13.486;2022-10-16T03:19:38;14.40;99.90
9305;DHT22;4690;52.422;13.486;2022-10-16T03:22:04;14.40;99.90
9305;DHT22;4690;52.422;13.486;2022-10-16T03:24:30;14.40;99.90
9305;DHT22;4690;52.422;13.486;2022-10-16T03:26:56;14.40;99.90
9305;DHT22;4690;52.422;13.486;2022-10-16T03:29:22;14.40;99.90
9305;DHT22;4690;52.422;13.486;2022-10-16T03:31:48;14.30;99.90
9305;DHT22;4690;52.422;13.486;2022-10-16T03:34:15;14.20;99.90
9305;DHT22;4690;52.422;13.486;2022-10-16T03:36:40;14.30;99.90
9305;DHT22;4690;52.422;13.486;2022-10-16T03:39:06;14.20;99.90
9305;DHT22;4690;52.422;13.486;2022-10-16T03:41:32;14.20;99.90
9305;DHT22;4690;52.422;13.486;2022-10-16T03:43:58;14.10;99.90
9305;DHT22;4690;52.422;13.486;2022-10-16T03:46:23;14.10;99.90
9305;DHT22;4690;52.422;13.486;2022-10-16T03:48:49;14.10;99.90
9305;DHT22;4690;52.422;13.486;2022-10-16T03:51:15;14.10;99.90
9305;DHT22;4690;52.422;13.486;2022-10-16T03:53:40;14.10;99.90
9305;DHT22;4690;52.422;13.486;2022-10-16T03:56:06;14.10;99.90
9305;DHT22;4690;52.422;13.486;2022-10-16T03:58:32;14.10;99.90
9305;DHT22;4690;52.422;13.486;2022-10-16T04:00:58;14.10;99.90
9305;DHT22;4690;52.422;13.486;2022-10-16T04:03:23;14.00;99.90
9305;DHT22;4690;52.422;13.486;2022-10-16T04:05:49;14.00;99.90
9305;DHT22;4690;52.422;13.486;2022-10-16T04:08:16;14.00;99.90
9305;DHT22;4690;52.422;13.486;2022-10-16T04:10:45;14.00;99.90
9305;DHT22;4690;52.422;13.486;2022-10-16T04:13:11;14.00;99.90
9305;DHT22;4690;52.422;13.486;2022-10-16T04:15:37;13.90;99.90
9305;DHT22;4690;52.422;13.486;2022-10-16T04:18:04;14.00;99.90
9305;DHT22;4690;52.422;13.486;2022-10-16T04:20:31;14.00;99.90
9305;DHT22;4690;52.422;13.486;2022-10-16T04:22:57;14.00;99.90
9305;DHT22;4690;52.422;13.486;2022-10-16T04:25:23;14.00;99.90
9305;DHT22;4690;52.422;13.486;2022-10-16T04:27:48;13.90;99.90
9305;DHT22;4690;52.422;13.486;2022-10-16T04:30:14;13.90;99.90
9305;DHT22;4690;52.422;13.486;2022-10-16T04:32:40;13.90;99.90
9305;DHT22;4690;52.422;13.486;2022-10-16T04:35:06;13.90;99.90
9305;DHT22;4690;52.422;13.486;2022-10-16T04:37:32;13.90;99.90
9305;DHT22;4690;52.422;13.486;2022-10-16T04:39:58;13.90;99.90
9305;DHT22;4690;52.422;13.486;2022-10-16T04:42:24;13.90;99.90
9305;DHT22;4690;52.422;13.486;2022-10-16T04:44:50;13.80;99.90
9305;DHT22;4690;52.422;13.486;2022-10-16T04:47:15;13.80;99.90
9305;DHT22;4690;52.422;13.486;2022-10-16T04:49:41;13.70;99.90
9305;DHT22;4690;52.422;13.486;2022-10-16T04:52:07;13.70;99.90
9305;DHT22;4690;52.422;13.486;2022-10-16T04:54:34;13.70;99.90
9305;DHT22;4690;52.422;13.486;2022-10-16T04:57:00;13.60;99.90
9305;DHT22;4690;52.422;13.486;2022-10-16T04:59:25;13.70;99.90
9305;DHT22;4690;52.422;13.486;2022-10-16T05:01:51;13.60;99.90
9305;DHT22;4690;52.422;13.486;2022-10-16T05:04:17;13.60;99.90
9305;DHT22;4690;52.422;13.486;2022-10-16T05:06:43;13.60;99.90
9305;DHT22;4690;52.422;13.486;2022-10-16T05:09:09;13.50;99.90
9305;DHT22;4690;52.422;13.486;2022-10-16T05:11:35;13.50;99.90
9305;DHT22;4690;52.422;13.486;2022-10-16T05:14:01;13.40;99.90
9305;DHT22;4690;52.422;13.486;2022-10-16T05:16:27;13.50;99.90
9305;DHT22;4690;52.422;13.486;2022-10-16T05:18:52;13.50;99.90
9305;DHT22;4690;52.422;13.486;2022-10-16T05:21:19;13.50;99.90
9305;DHT22;4690;52.422;13.486;2022-10-16T05:23:45;13.60;99.90
9305;DHT22;4690;52.422;13.486;2022-10-16T05:26:10;13.50;99.90
9305;DHT22;4690;52.422;13.486;2022-10-16T05:28:36;13.50;99.90
9305;DHT22;4690;52.422;13.486;2022-10-16T05:31:06;13.40;99.90
9305;DHT22;4690;52.422;13.486;2022-10-16T05:33:33;13.50;99.90
9305;DHT22;4690;52.422;13.486;2022-10-16T05:36:04;13.40;99.90
9305;DHT22;4690;52.422;13.486;2022-10-16T05:38:35;13.30;99.90
9305;DHT22;4690;52.422;13.486;2022-10-16T05:41:01;13.20;99.90
9305;DHT22;4690;52.422;13.486;2022-10-16T05:43:29;13.20;99.90
9305;DHT22;4690;52.422;13.486;2022-10-16T05:46:00;13.20;99.90
9305;DHT22;4690;52.422;13.486;2022-10-16T05:48:30;13.20;99.90
9305;DHT22;4690;52.422;13.486;2022-10-16T05:51:05;13.10;99.90
9305;DHT22;4690;52.422;13.486;2022-10-16T05:53:36;13.10;99.90
9305;DHT22;4690;52.422;13.486;2022-10-16T05:56:03;13.10;99.90
9305;DHT22;4690;52.422;13.486;2022-10-16T05:58:32;13.10;99.90
9305;DHT22;4690;52.422;13.486;2022-10-16T06:01:03;13.20;99.90
9305;DHT22;4690;52.422;13.486;2022-10-16T06:03:32;13.30;99.90
9305;DHT22;4690;52.422;13.486;2022-10-16T06:05:59;13.30;99.90
9305;DHT22;4690;52.422;13.486;2022-10-16T06:08:25;13.20;99.90
9305;DHT22;4690;52.422;13.486;2022-10-16T06:11:04;13.30;99.90
9305;DHT22;4690;52.422;13.486;2022-10-16T06:13:31;13.30;99.90
9305;DHT22;4690;52.422;13.486;2022-10-16T06:15:58;13.40;99.90
9305;DHT22;4690;52.422;13.486;2022-10-16T06:18:27;13.50;99.90
9305;DHT22;4690;52.422;13.486;2022-10-16T06:20:54;13.60;99.90
9305;DHT22;4690;52.422;13.486;2022-10-16T06:23:20;13.60;99.90
9305;DHT22;4690;52.422;13.486;2022-10-16T06:25:46;13.70;99.90
9305;DHT22;4690;52.422;13.486;2022-10-16T06:28:14;13.80;99.90
9305;DHT22;4690;52.422;13.486;2022-10-16T06:30:40;13.80;99.90
9305;DHT22;4690;52.422;13.486;2022-10-16T06:33:08;13.90;99.90
9305;DHT22;4690;52.422;13.486;2022-10-16T06:35:33;13.90;99.90
9305;DHT22;4690;52.422;13.486;2022-10-16T06:37:59;13.90;99.90
9305;DHT22;4690;52.422;13.486;2022-10-16T06:40:25;14.00;99.90
9305;DHT22;4690;52.422;13.486;2022-10-16T06:42:50;14.00;99.90
9305;DHT22;4690;52.422;13.486;2022-10-16T06:45:17;14.10;99.90
9305;DHT22;4690;52.422;13.486;2022-10-16T06:47:42;14.10;99.90
9305;DHT22;4690;52.422;13.486;2022-10-16T06:50:08;14.10;99.90
9305;DHT22;4690;52.422;13.486;2022-10-16T06:52:34;14.20;99.90
9305;DHT22;4690;52.422;13.486;2022-10-16T06:55:00;14.20;99.90
9305;DHT22;4690;52.422;13.486;2022-10-16T06:57:26;14.30;99.90
9305;DHT22;4690;52.422;13.486;2022-10-16T06:59:52;14.30;99.90
9305;DHT22;4690;52.422;13.486;2022-10-16T07:02:18;14.30;99.90
9305;DHT22;4690;52.422;13.486;2022-10-16T07:04:43;14.30;99.90
9305;DHT22;4690;52.422;13.486;2022-10-16T07:07:09;14.40;99.90
9305;DHT22;4690;52.422;13.486;2022-10-16T07:09:35;14.40;99.90
9305;DHT22;4690;52.422;13.486;2022-10-16T07:12:00;14.50;99.90
9305;DHT22;4690;52.422;13.486;2022-10-16T07:14:26;14.70;99.90
9305;DHT22;4690;52.422;13.486;2022-10-16T07:16:53;14.80;99.90
9305;DHT22;4690;52.422;13.486;2022-10-16T07:19:18;15.00;99.90
9305;DHT22;4690;52.422;13.486;2022-10-16T07:21:44;15.10;99.90
9305;DHT22;4690;52.422;13.486;2022-10-16T07:24:15;15.30;99.90
9305;DHT22;4690;52.422;13.486;2022-10-16T07:26:43;15.50;99.90
9305;DHT22;4690;52.422;13.486;2022-10-16T07:29:16;15.60;99.90
9305;DHT22;4690;52.422;13.486;2022-10-16T07:31:47;15.60;99.90
9305;DHT22;4690;52.422;13.486;2022-10-16T07:34:16;15.80;99.90
9305;DHT22;4690;52.422;13.486;2022-10-16T07:36:43;15.80;99.90
9305;DHT22;4690;52.422;13.486;2022-10-16T07:39:08;15.90;99.90
9305;DHT22;4690;52.422;13.486;2022-10-16T07:41:34;16.00;99.90
9305;DHT22;4690;52.422;13.486;2022-10-16T07:44:02;16.10;99.90
9305;DHT22;4690;52.422;13.486;2022-10-16T07:46:29;16.20;99.90
9305;DHT22;4690;52.422;13.486;2022-10-16T07:48:56;16.10;99.90
9305;DHT22;4690;52.422;13.486;2022-10-16T07:51:23;16.10;99.90
9305;DHT22;4690;52.422;13.486;2022-10-16T07:53:50;16.10;99.90
9305;DHT22;4690;52.422;13.486;2022-10-16T07:56:17;16.10;99.90
9305;DHT22;4690;52.422;13.486;2022-10-16T07:58:45;16.10;99.90
9305;DHT22;4690;52.422;13.486;2022-10-16T08:01:13;16.10;99.90
9305;DHT22;4690;52.422;13.486;2022-10-16T08:03:44;16.10;99.90
9305;DHT22;4690;52.422;13.486;2022-10-16T08:06:11;16.10;99.90
9305;DHT22;4690;52.422;13.486;2022-10-16T08:08:37;16.10;99.90
9305;DHT22;4690;52.422;13.486;2022-10-16T08:11:03;16.10;99.90
9305;DHT22;4690;52.422;13.486;2022-10-16T08:13:29;16.10;99.90
9305;DHT22;4690;52.422;13.486;2022-10-16T08:15:56;16.20;99.90
9305;DHT22;4690;52.422;13.486;2022-10-16T08:18:22;16.20;99.90
9305;DHT22;4690;52.422;13.486;2022-10-16T08:20:55;16.30;99.90
9305;DHT22;4690;52.422;13.486;2022-10-16T08:23:23;16.40;99.90
9305;DHT22;4690;52.422;13.486;2022-10-16T08:25:51;16.40;99.90
9305;DHT22;4690;52.422;13.486;2022-10-16T08:28:18;16.50;99.90
9305;DHT22;4690;52.422;13.486;2022-10-16T08:30:44;16.50;99.90
9305;DHT22;4690;52.422;13.486;2022-10-16T08:33:10;16.60;99.90
9305;DHT22;4690;52.422;13.486;2022-10-16T08:35:36;16.60;99.90
9305;DHT22;4690;52.422;13.486;2022-10-16T08:38:06;16.80;99.90
9305;DHT22;4690;52.422;13.486;2022-10-16T08:40:33;16.90;99.90
9305;DHT22;4690;52.422;13.486;2022-10-16T08:43:23;17.00;99.90
9305;DHT22;4690;52.422;13.486;2022-10-16T08:48:47;17.10;99.90
9305;DHT22;4690;52.422;13.486;2022-10-16T08:51:32;17.10;99.90
9305;DHT22;4690;52.422;13.486;2022-10-16T08:54:05;17.10;99.90
9305;DHT22;4690;52.422;13.486;2022-10-16T08:56:37;17.10;99.90
9305;DHT22;4690;52.422;13.486;2022-10-16T08:59:06;17.00;99.90
9305;DHT22;4690;52.422;13.486;2022-10-16T09:01:40;17.00;99.90
9305;DHT22;4690;52.422;13.486;2022-10-16T09:04:39;17.00;99.90
9305;DHT22;4690;52.422;13.486;2022-10-16T09:10:19;17.00;99.90
9305;DHT22;4690;52.422;13.486;2022-10-16T09:13:11;17.10;99.90
9305;DHT22;4690;52.422;13.486;2022-10-16T09:19:21;17.30;99.90
9305;DHT22;4690;52.422;13.486;2022-10-16T09:21:47;17.50;99.90
9305;DHT22;4690;52.422;13.486;2022-10-16T09:24:16;17.60;99.90
9305;DHT22;4690;52.422;13.486;2022-10-16T09:26:46;17.80;99.90
9305;DHT22;4690;52.422;13.486;2022-10-16T09:29:13;17.80;99.90
9305;DHT22;4690;52.422;13.486;2022-10-16T09:31:41;17.90;99.90
9305;DHT22;4690;52.422;13.486;2022-10-16T09:34:34;17.90;99.90
9305;DHT22;4690;52.422;13.486;2022-10-16T09:37:10;17.80;99.90
9305;DHT22;4690;52.422;13.486;2022-10-16T09:39:52;17.80;99.90
9305;DHT22;4690;52.422;13.486;2022-10-16T09:42:27;17.80;99.90
9305;DHT22;4690;52.422;13.486;2022-10-16T09:44:57;17.90;99.90
9305;DHT22;4690;52.422;13.486;2022-10-16T09:47:28;18.00;99.90
9305;DHT22;4690;52.422;13.486;2022-10-16T09:52:28;18.10;99.90
9305;DHT22;4690;52.422;13.486;2022-10-16T09:54:59;18.20;99.90
9305;DHT22;4690;52.422;13.486;2022-10-16T09:57:49;18.10;99.90
9305;DHT22;4690;52.422;13.486;2022-10-16T10:00:19;18.10;99.90
9305;DHT22;4690;52.422;13.486;2022-10-16T10:02:46;18.00;99.90
9305;DHT22;4690;52.422;13.486;2022-10-16T10:05:26;18.00;99.90
9305;DHT22;4690;52.422;13.486;2022-10-16T10:12:48;18.20;99.90
9305;DHT22;4690;52.422;13.486;2022-10-16T10:15:15;18.40;99.90
9305;DHT22;4690;52.422;13.486;2022-10-16T10:17:51;18.50;99.90
9305;DHT22;4690;52.422;13.486;2022-10-16T10:22:51;18.80;99.90
9305;DHT22;4690;52.422;13.486;2022-10-16T10:25:38;18.90;99.90
9305;DHT22;4690;52.422;13.486;2022-10-16T10:33:45;18.80;99.90
9305;DHT22;4690;52.422;13.486;2022-10-16T10:36:37;18.90;99.90
9305;DHT22;4690;52.422;13.486;2022-10-16T10:39:20;18.90;99.90
9305;DHT22;4690;52.422;13.486;2022-10-16T10:42:23;18.90;99.90
9305;DHT22;4690;52.422;13.486;2022-10-16T10:45:02;18.90;99.90
9305;DHT22;4690;52.422;13.486;2022-10-16T10:47:58;18.90;99.90
9305;DHT22;4690;52.422;13.486;2022-10-16T10:50:56;18.90;99.90
9305;DHT22;4690;52.422;13.486;2022-10-16T11:02:36;19.20;99.90
9305;DHT22;4690;52.422;13.486;2022-10-16T11:08:36;19.50;99.90
9305;DHT22;4690;52.422;13.486;2022-10-16T11:11:20;19.30;99.90
9305;DHT22;4690;52.422;13.486;2022-10-16T11:14:03;19.10;99.90
9305;DHT22;4690;52.422;13.486;2022-10-16T11:16:54;19.10;99.90
9305;DHT22;4690;52.422;13.486;2022-10-16T11:28:02;20.20;99.90
9305;DHT22;4690;52.422;13.486;2022-10-16T11:30:52;20.30;99.90
9305;DHT22;4690;52.422;13.486;2022-10-16T11:33:27;20.30;99.90
9305;DHT22;4690;52.422;13.486;2022-10-16T11:36:23;20.20;99.90
9305;DHT22;4690;52.422;13.486;2022-10-16T11:54:24;19.70;99.90
9305;DHT22;4690;52.422;13.486;2022-10-16T11:57:01;19.80;99.90
9305;DHT22;4690;52.422;13.486;2022-10-16T12:05:53;20.70;99.90
9305;DHT22;4690;52.422;13.486;2022-10-16T12:08:23;20.80;99.90
9305;DHT22;4690;52.422;13.486;2022-10-16T12:10:50;20.70;99.90
9305;DHT22;4690;52.422;13.486;2022-10-16T12:16:24;20.80;99.90
9305;DHT22;4690;52.422;13.486;2022-10-16T12:19:09;20.50;99.90
9305;DHT22;4690;52.422;13.486;2022-10-16T12:21:37;20.30;99.90
9305;DHT22;4690;52.422;13.486;2022-10-16T12:24:04;20.30;99.90
9305;DHT22;4690;52.422;13.486;2022-10-16T12:26:38;20.20;99.90
9305;DHT22;4690;52.422;13.486;2022-10-16T12:29:22;20.30;99.90
9305;DHT22;4690;52.422;13.486;2022-10-16T12:31:55;20.50;99.90
9305;DHT22;4690;52.422;13.486;2022-10-16T12:34:27;20.70;99.90
9305;DHT22;4690;52.422;13.486;2022-10-16T12:36:56;20.90;99.90
9305;DHT22;4690;52.422;13.486;2022-10-16T12:39:35;20.90;99.90
9305;DHT22;4690;52.422;13.486;2022-10-16T12:45:23;21.20;99.90
9305;DHT22;4690;52.422;13.486;2022-10-16T12:47:59;21.30;99.90
9305;DHT22;4690;52.422;13.486;2022-10-16T12:50:37;21.50;99.90
9305;DHT22;4690;52.422;13.486;2022-10-16T12:53:26;21.40;99.90
9305;DHT22;4690;52.422;13.486;2022-10-16T13:10:44;21.60;99.90
9305;DHT22;4690;52.422;13.486;2022-10-16T13:19:53;20.90;99.90
9305;DHT22;4690;52.422;13.486;2022-10-16T13:22:37;20.70;99.90
9305;DHT22;4690;52.422;13.486;2022-10-16T13:25:58;20.70;99.90
9305;DHT22;4690;52.422;13.486;2022-10-16T13:28:08;20.60;99.90
9305;DHT22;4690;52.422;13.486;2022-10-16T13:30:42;20.40;99.90
9305;DHT22;4690;52.422;13.486;2022-10-16T13:33:35;20.30;99.90
9305;DHT22;4690;52.422;13.486;2022-10-16T13:36:04;20.50;99.90
9305;DHT22;4690;52.422;13.486;2022-10-16T13:38:32;20.50;99.90
9305;DHT22;4690;52.422;13.486;2022-10-16T13:41:05;20.40;99.90
9305;DHT22;4690;52.422;13.486;2022-10-16T13:43:41;20.40;99.90
9305;DHT22;4690;52.422;13.486;2022-10-16T13:46:20;20.50;99.90
9305;DHT22;4690;52.422;13.486;2022-10-16T13:49:04;20.50;99.90
9305;DHT22;4690;52.422;13.486;2022-10-16T13:51:38;20.50;99.90
9305;DHT22;4690;52.422;13.486;2022-10-16T13:54:04;20.50;99.90
9305;DHT22;4690;52.422;13.486;2022-10-16T13:56:31;20.50;99.90
9305;DHT22;4690;52.422;13.486;2022-10-16T13:59:06;20.40;99.90
9305;DHT22;4690;52.422;13.486;2022-10-16T14:01:47;20.20;99.90
9305;DHT22;4690;52.422;13.486;2022-10-16T14:04:14;20.10;99.90
9305;DHT22;4690;52.422;13.486;2022-10-16T14:06:45;20.20;99.90
9305;DHT22;4690;52.422;13.486;2022-10-16T14:09:25;20.20;99.90
9305;DHT22;4690;52.422;13.486;2022-10-16T14:12:01;20.10;99.90
9305;DHT22;4690;52.422;13.486;2022-10-16T14:14:45;20.10;99.90
9305;DHT22;4690;52.422;13.486;2022-10-16T14:17:18;20.10;99.90
9305;DHT22;4690;52.422;13.486;2022-10-16T14:19:49;20.10;99.90
9305;DHT22;4690;52.422;13.486;2022-10-16T14:24:53;20.30;99.90
9305;DHT22;4690;52.422;13.486;2022-10-16T14:27:33;20.30;99.90
9305;DHT22;4690;52.422;13.486;2022-10-16T14:30:12;20.40;99.90
9305;DHT22;4690;52.422;13.486;2022-10-16T14:32:51;20.30;99.90
9305;DHT22;4690;52.422;13.486;2022-10-16T14:35:30;20.10;99.90
9305;DHT22;4690;52.422;13.486;2022-10-16T14:38:05;20.10;99.90
9305;DHT22;4690;52.422;13.486;2022-10-16T14:40:47;20.20;99.90
9305;DHT22;4690;52.422;13.486;2022-10-16T14:43:21;20.30;99.90
9305;DHT22;4690;52.422;13.486;2022-10-16T14:45:53;20.40;99.90
9305;DHT22;4690;52.422;13.486;2022-10-16T14:48:20;20.30;99.90
9305;DHT22;4690;52.422;13.486;2022-10-16T14:50:47;20.30;99.90
9305;DHT22;4690;52.422;13.486;2022-10-16T14:53:12;20.30;99.90
9305;DHT22;4690;52.422;13.486;2022-10-16T14:55:40;20.20;99.90
9305;DHT22;4690;52.422;13.486;2022-10-16T14:58:20;20.10;99.90
9305;DHT22;4690;52.422;13.486;2022-10-16T15:00:48;20.00;99.90
9305;DHT22;4690;52.422;13.486;2022-10-16T15:03:15;19.90;99.90
9305;DHT22;4690;52.422;13.486;2022-10-16T15:05:41;19.90;99.90
9305;DHT22;4690;52.422;13.486;2022-10-16T15:08:07;19.80;99.90
9305;DHT22;4690;52.422;13.486;2022-10-16T15:10:38;19.70;99.90
9305;DHT22;4690;52.422;13.486;2022-10-16T15:13:06;19.70;99.90
9305;DHT22;4690;52.422;13.486;2022-10-16T15:15:40;19.60;99.90
9305;DHT22;4690;52.422;13.486;2022-10-16T15:18:09;19.60;99.90
9305;DHT22;4690;52.422;13.486;2022-10-16T15:20:37;19.50;99.90
9305;DHT22;4690;52.422;13.486;2022-10-16T15:23:14;19.40;99.90
9305;DHT22;4690;52.422;13.486;2022-10-16T15:25:47;19.40;99.90
9305;DHT22;4690;52.422;13.486;2022-10-16T15:28:23;19.30;99.90
9305;DHT22;4690;52.422;13.486;2022-10-16T15:30:52;19.30;99.90
9305;DHT22;4690;52.422;13.486;2022-10-16T15:33:28;19.20;99.90
9305;DHT22;4690;52.422;13.486;2022-10-16T15:35:58;19.20;99.90
9305;DHT22;4690;52.422;13.486;2022-10-16T15:38:24;19.10;99.90
9305;DHT22;4690;52.422;13.486;2022-10-16T15:40:55;19.10;99.90
9305;DHT22;4690;52.422;13.486;2022-10-16T15:43:22;19.00;99.90
9305;DHT22;4690;52.422;13.486;2022-10-16T15:45:59;18.90;99.90
9305;DHT22;4690;52.422;13.486;2022-10-16T15:48:31;18.70;99.90
9305;DHT22;4690;52.422;13.486;2022-10-16T15:50:59;18.50;99.90
9305;DHT22;4690;52.422;13.486;2022-10-16T15:53:25;18.40;99.90
9305;DHT22;4690;52.422;13.486;2022-10-16T15:55:51;18.30;99.90
9305;DHT22;4690;52.422;13.486;2022-10-16T15:58:17;18.10;99.90
9305;DHT22;4690;52.422;13.486;2022-10-16T16:00:42;18.00;99.90
9305;DHT22;4690;52.422;13.486;2022-10-16T16:03:08;17.90;99.90
9305;DHT22;4690;52.422;13.486;2022-10-16T16:05:37;17.80;99.90
9305;DHT22;4690;52.422;13.486;2022-10-16T16:08:04;17.60;99.90
9305;DHT22;4690;52.422;13.486;2022-10-16T16:10:30;17.50;99.90
9305;DHT22;4690;52.422;13.486;2022-10-16T16:12:56;17.40;99.90
9305;DHT22;4690;52.422;13.486;2022-10-16T16:15:22;17.20;99.90
9305;DHT22;4690;52.422;13.486;2022-10-16T16:17:48;17.10;99.90
9305;DHT22;4690;52.422;13.486;2022-10-16T16:20:14;17.00;99.90
9305;DHT22;4690;52.422;13.486;2022-10-16T16:22:41;16.90;99.90
9305;DHT22;4690;52.422;13.486;2022-10-16T16:25:07;16.70;99.90
9305;DHT22;4690;52.422;13.486;2022-10-16T16:27:33;16.60;99.90
9305;DHT22;4690;52.422;13.486;2022-10-16T16:30:00;16.50;99.90
9305;DHT22;4690;52.422;13.486;2022-10-16T16:32:28;16.30;99.90
9305;DHT22;4690;52.422;13.486;2022-10-16T16:34:54;16.10;99.90
9305;DHT22;4690;52.422;13.486;2022-10-16T16:37:20;16.00;99.90
9305;DHT22;4690;52.422;13.486;2022-10-16T16:39:46;15.90;99.90
9305;DHT22;4690;52.422;13.486;2022-10-16T16:42:12;15.80;99.90
9305;DHT22;4690;52.422;13.486;2022-10-16T16:44:37;15.70;99.90
9305;DHT22;4690;52.422;13.486;2022-10-16T16:47:04;15.60;99.90
9305;DHT22;4690;52.422;13.486;2022-10-16T16:49:31;15.40;99.90
9305;DHT22;4690;52.422;13.486;2022-10-16T16:51:57;15.40;99.90
9305;DHT22;4690;52.422;13.486;2022-10-16T16:54:23;15.30;99.90
9305;DHT22;4690;52.422;13.486;2022-10-16T16:56:50;15.20;99.90
9305;DHT22;4690;52.422;13.486;2022-10-16T16:59:19;15.10;99.90
9305;DHT22;4690;52.422;13.486;2022-10-16T17:01:47;15.00;99.90
9305;DHT22;4690;52.422;13.486;2022-10-16T17:04:14;15.00;99.90
9305;DHT22;4690;52.422;13.486;2022-10-16T17:06:42;14.90;99.90
9305;DHT22;4690;52.422;13.486;2022-10-16T17:09:09;14.80;99.90
9305;DHT22;4690;52.422;13.486;2022-10-16T17:11:38;14.80;99.90
9305;DHT22;4690;52.422;13.486;2022-10-16T17:14:06;14.80;99.90
9305;DHT22;4690;52.422;13.486;2022-10-16T17:16:35;14.70;99.90
9305;DHT22;4690;52.422;13.486;2022-10-16T17:19:08;14.60;99.90
9305;DHT22;4690;52.422;13.486;2022-10-16T17:21:37;14.60;99.90
9305;DHT22;4690;52.422;13.486;2022-10-16T17:24:03;14.50;99.90
9305;DHT22;4690;52.422;13.486;2022-10-16T17:26:30;14.40;99.90
9305;DHT22;4690;52.422;13.486;2022-10-16T17:28:59;14.40;99.90
9305;DHT22;4690;52.422;13.486;2022-10-16T17:31:30;14.30;99.90
9305;DHT22;4690;52.422;13.486;2022-10-16T17:33:59;14.30;99.90
9305;DHT22;4690;52.422;13.486;2022-10-16T17:36:26;14.20;99.90
9305;DHT22;4690;52.422;13.486;2022-10-16T17:39:04;14.20;99.90
9305;DHT22;4690;52.422;13.486;2022-10-16T17:41:33;14.20;99.90
9305;DHT22;4690;52.422;13.486;2022-10-16T17:44:00;14.10;99.90
9305;DHT22;4690;52.422;13.486;2022-10-16T17:46:26;14.00;99.90
9305;DHT22;4690;52.422;13.486;2022-10-16T17:48:53;13.90;99.90
9305;DHT22;4690;52.422;13.486;2022-10-16T17:51:23;13.80;99.90
9305;DHT22;4690;52.422;13.486;2022-10-16T17:53:55;13.80;99.90
9305;DHT22;4690;52.422;13.486;2022-10-16T17:56:24;13.70;99.90
9305;DHT22;4690;52.422;13.486;2022-10-16T17:58:52;13.70;99.90
9305;DHT22;4690;52.422;13.486;2022-10-16T18:01:23;13.70;99.90